Etusivu
METAR-TAF:

METAR-TAF

Lentoasemat :

F 7 Såtenäs

Såtenäs, Ruotsi

Leveyspiiri: 58-26N, Pituuspiiri: 012-42E, korkeus merenpinnasta: 54 m

Tämänhetkinen sää

Tämä raportti tehtiin 24 minuuttia sitten, kello 17.20 UTC
Tuuli 3 kn pohjoisesta, vaihdellen pohjoisen ja koillisen välillä
Lämpötila 2°C
Kosteus 47%
Ilmanpaine 1028 hPa
Näkyvyys 10 km tai enemmän

METAR: ESIB 301720Z AUTO 01003KT 350V050 9999 NCD 02/M08 Q1028

Aika: 19:44 (17:44 UTC)

Sääennuste

Tämä raportti tehtiin 6 tuntia ja 14 minuuttia sitten, kello 11.30 UTC
Ennuste voimassa 30. päivästä klo 12 UTC - 30. päivään klo 15 UTC
Tuuli 12 kn pohjoisesta/koillisesta puuskistuen 22 kn:hen
Näkyvyys 10 km tai enemmän
ei pilviä alle 1500 m:ssä eikä cumulonimbus-pilviä

TAF: ESIB 301130Z 3012/3015 02012G22KT CAVOK RMK MIL

Säähavainnot ja -ennusteet yli 4000 lentoasemalta (METAR- ja TAF-raportit).

Käytössä olevat sääasemat on merkitty karttaan keltaisilla ja punaisilla pisteillä.

Aseta hiiri pisteen päälle nähdäksesi sääaseman nimen.

Klikkaa sitten nähdäksesi säähavainnot ja -ennusteet.

Kartan vaihtaminen: klikkaa mustalla rastilla varustettuja vihreitä pisteitä, niin voit zoomata sisään; viivalla varustettua vihreää pistettä, niin voit zoomata ulos tai vihreitä nuolia, niin pääset viereisille kartoille.


METAR-TAF: